Time;durP1;ratioP1;P1;durP2;ratioP2;P2;SDS_P1;SDS_P2;PMS_P1;PMS_P2;Temp;Humidity;BMP_temperature;BMP_pressure;BME280_temperature;BME280_humidity;BME280_pressure;Samples;Min_cycle;Max_cycle;Signal;HPM_P1;HPM_P2
2021/09/26 00:00:58;;;;;;;8.50;7.70;;;19.90;36.40;;;;;;10480934;28;20605;-74
2021/09/26 00:06:02;;;;;;;8.37;7.60;;;19.80;37.20;;;;;;10500321;28;20702;-75
2021/09/26 00:11:06;;;;;;;9.20;8.27;;;19.70;36.80;;;;;;10496075;28;20239;-74
2021/09/26 00:16:12;;;;;;;9.60;7.80;;;19.60;37.20;;;;;;10482359;28;20602;-74
2021/09/26 00:21:16;;;;;;;8.20;7.50;;;19.60;38.30;;;;;;10491026;28;20217;-74
2021/09/26 00:26:20;;;;;;;7.80;7.10;;;19.60;37.90;;;;;;10475541;28;20232;-74
2021/09/26 00:31:24;;;;;;;7.33;6.63;;;19.70;37.40;;;;;;10478075;28;20228;-74
2021/09/26 00:36:27;;;;;;;8.30;7.57;;;19.70;37.90;;;;;;10488680;28;20231;-74
2021/09/26 00:41:31;;;;;;;7.63;6.83;;;19.70;37.70;;;;;;10487651;28;20220;-74
2021/09/26 00:46:35;;;;;;;7.70;6.93;;;19.70;37.60;;;;;;10488878;28;20952;-74
2021/09/26 00:51:38;;;;;;;7.73;6.97;;;19.70;38.10;;;;;;10485056;28;20228;-74
2021/09/26 00:56:42;;;;;;;7.40;6.80;;;19.60;37.70;;;;;;10488273;28;20231;-74
2021/09/26 01:01:47;;;;;;;8.00;6.43;;;19.70;38.00;;;;;;10484840;28;20699;-74
2021/09/26 01:06:59;;;;;;;8.37;7.40;;;19.70;38.30;;;;;;10488281;28;20301;-74
2021/09/26 01:12:11;;;;;;;7.17;6.47;;;19.70;39.00;;;;;;10490620;28;20220;-74
2021/09/26 01:17:23;;;;;;;9.10;7.37;;;19.70;38.70;;;;;;10496967;28;20227;-74
2021/09/26 01:22:43;;;;;;;8.17;7.37;;;19.70;39.40;;;;;;10490879;28;20242;-74
2021/09/26 01:28:12;;;;;;;7.47;6.87;;;19.70;39.30;;;;;;10495824;28;20239;-74
2021/09/26 01:33:22;;;;;;;7.47;6.77;;;19.70;39.10;;;;;;10481578;28;20236;-74
2021/09/26 01:38:41;;;;;;;7.60;6.90;;;19.70;39.30;;;;;;10500663;28;20225;-74
2021/09/26 01:43:47;;;;;;;7.60;6.97;;;19.70;39.30;;;;;;10485953;28;20718;-74
2021/09/26 01:49:00;;;;;;;8.87;7.70;;;19.70;39.10;;;;;;10481896;28;20237;-74
2021/09/26 01:54:05;;;;;;;7.50;6.80;;;19.70;39.70;;;;;;10475414;28;20228;-75
2021/09/26 01:59:10;;;;;;;7.07;6.47;;;19.70;39.20;;;;;;10485278;28;20247;-75
2021/09/26 02:04:16;;;;;;;7.83;7.13;;;19.60;38.90;;;;;;10477906;28;20718;-75
2021/09/26 02:09:20;;;;;;;7.70;7.00;;;19.60;39.60;;;;;;10482002;28;20228;-75
2021/09/26 02:14:24;;;;;;;6.97;6.37;;;19.60;38.90;;;;;;10475360;28;20229;-74
2021/09/26 02:19:29;;;;;;;7.03;6.40;;;19.60;38.90;;;;;;10493540;28;20286;-75
2021/09/26 02:24:34;;;;;;;7.90;7.20;;;19.60;39.80;;;;;;10485249;28;20228;-74
2021/09/26 02:29:37;;;;;;;7.47;6.80;;;19.60;39.70;;;;;;10483474;28;20243;-75
2021/09/26 02:34:42;;;;;;;7.57;6.97;;;19.60;39.30;;;;;;10484769;28;20220;-74
2021/09/26 02:39:46;;;;;;;7.30;6.60;;;19.60;40.00;;;;;;10479597;28;20319;-75
2021/09/26 02:45:05;;;;;;;7.17;6.57;;;19.50;39.60;;;;;;10486659;28;20228;-75
2021/09/26 02:50:11;;;;;;;6.80;6.13;;;19.50;40.60;;;;;;10484796;28;20303;-74
2021/09/26 02:55:16;;;;;;;7.73;7.03;;;19.50;40.20;;;;;;10489668;28;20226;-74
2021/09/26 03:00:19;;;;;;;7.40;6.70;;;19.50;40.30;;;;;;10482884;28;20220;-74
2021/09/26 03:05:24;;;;;;;7.90;7.20;;;19.50;39.80;;;;;;10481472;28;21000;-74
2021/09/26 03:10:27;;;;;;;8.47;7.63;;;19.50;40.50;;;;;;10483108;28;20231;-74
2021/09/26 03:15:30;;;;;;;10.00;7.23;;;19.50;39.90;;;;;;10472458;28;20237;-75
2021/09/26 03:20:35;;;;;;;7.80;7.17;;;19.60;40.20;;;;;;10477899;28;20228;-74
2021/09/26 03:25:38;;;;;;;7.00;6.40;;;19.50;40.80;;;;;;10499893;28;20235;-74
2021/09/26 03:30:42;;;;;;;7.50;6.67;;;19.50;40.10;;;;;;10478636;28;20235;-75
2021/09/26 03:35:46;;;;;;;7.60;7.00;;;19.50;40.30;;;;;;10472989;28;20224;-75
2021/09/26 03:40:49;;;;;;;7.50;6.90;;;19.40;40.90;;;;;;10477820;28;20232;-75
2021/09/26 03:45:52;;;;;;;7.77;7.00;;;19.50;40.60;;;;;;10484728;28;20220;-75
2021/09/26 03:50:57;;;;;;;6.97;6.37;;;19.50;40.80;;;;;;10493388;28;20234;-75
2021/09/26 03:56:00;;;;;;;7.93;7.33;;;19.50;41.20;;;;;;10480300;28;20245;-75
2021/09/26 04:01:03;;;;;;;7.53;6.93;;;19.50;40.80;;;;;;10503069;28;20699;-75
2021/09/26 04:06:10;;;;;;;7.93;7.23;;;19.50;40.70;;;;;;10485876;28;20228;-75
2021/09/26 04:11:13;;;;;;;8.40;7.70;;;19.50;41.50;;;;;;10472611;28;20235;-74
2021/09/26 04:16:16;;;;;;;7.00;6.37;;;19.50;41.00;;;;;;10484467;28;20226;-75
2021/09/26 04:21:21;;;;;;;7.07;6.47;;;19.40;41.00;;;;;;10481756;28;20235;-75
2021/09/26 04:26:24;;;;;;;6.70;6.20;;;19.40;41.70;;;;;;10490315;28;20239;-75
2021/09/26 04:31:27;;;;;;;8.17;7.47;;;19.40;41.20;;;;;;10485042;28;20231;-75
2021/09/26 04:36:32;;;;;;;7.70;7.10;;;19.40;41.40;;;;;;10469720;28;20233;-75
2021/09/26 04:41:35;;;;;;;7.40;6.80;;;19.50;42.20;;;;;;10495128;28;20232;-74
2021/09/26 04:46:38;;;;;;;7.50;6.60;;;19.50;41.40;;;;;;10483755;28;20228;-74
2021/09/26 04:51:43;;;;;;;8.13;7.33;;;19.50;41.50;;;;;;10488851;28;20228;-75
2021/09/26 04:56:46;;;;;;;7.67;7.07;;;19.50;42.30;;;;;;10475553;28;20239;-75
2021/09/26 05:01:50;;;;;;;8.73;8.03;;;19.50;41.70;;;;;;10481609;28;20231;-75
2021/09/26 05:06:57;;;;;;;8.20;7.50;;;19.50;42.00;;;;;;10483413;28;20228;-75
2021/09/26 05:12:00;;;;;;;7.43;6.83;;;19.50;42.50;;;;;;10484193;28;20244;-75
2021/09/26 05:17:05;;;;;;;8.90;8.10;;;19.50;41.90;;;;;;10483995;28;20240;-75
2021/09/26 05:22:15;;;;;;;9.27;8.47;;;19.50;42.10;;;;;;10495367;28;20316;-75
2021/09/26 05:27:18;;;;;;;8.50;7.80;;;19.50;42.40;;;;;;10482355;28;20739;-74
2021/09/26 05:32:21;;;;;;;8.27;7.60;;;19.50;42.10;;;;;;10476784;28;21657;-74
2021/09/26 05:37:26;;;;;;;7.80;7.10;;;19.50;42.20;;;;;;10470855;28;20229;-75
2021/09/26 05:42:29;;;;;;;7.97;7.37;;;19.50;42.70;;;;;;10475064;28;20239;-73
2021/09/26 05:47:32;;;;;;;8.93;8.23;;;19.50;42.20;;;;;;10481047;28;20237;-75
2021/09/26 05:52:37;;;;;;;7.93;7.27;;;19.50;42.40;;;;;;10491182;28;20224;-74
2021/09/26 05:57:40;;;;;;;8.27;7.47;;;19.50;43.10;;;;;;10485669;28;20696;-74
2021/09/26 06:02:44;;;;;;;8.20;7.53;;;19.50;42.80;;;;;;10481539;28;20236;-74
2021/09/26 06:07:49;;;;;;;8.90;8.03;;;19.50;43.30;;;;;;10474791;28;20244;-74
2021/09/26 06:12:52;;;;;;;8.27;7.57;;;19.60;43.70;;;;;;10469034;28;20322;-74
2021/09/26 06:17:56;;;;;;;8.90;8.20;;;19.60;43.10;;;;;;10469730;28;20838;-74
2021/09/26 06:23:00;;;;;;;8.53;7.83;;;19.70;43.40;;;;;;10477770;28;20705;-74
2021/09/26 06:28:04;;;;;;;9.53;8.73;;;19.70;44.10;;;;;;10474361;28;20621;-74
2021/09/26 06:33:08;;;;;;;9.80;9.00;;;19.70;43.80;;;;;;10481309;28;20231;-74
2021/09/26 06:38:12;;;;;;;9.23;8.43;;;19.80;44.00;;;;;;10476775;28;20220;-74
2021/09/26 06:43:16;;;;;;;9.63;8.77;;;19.80;44.30;;;;;;10471077;28;20231;-74
2021/09/26 06:48:19;;;;;;;10.00;9.20;;;19.90;43.90;;;;;;10485656;28;20235;-75
2021/09/26 06:53:23;;;;;;;10.40;9.17;;;20.00;44.20;;;;;;10472765;28;20236;-75
2021/09/26 06:58:27;;;;;;;9.03;8.23;;;20.10;45.80;;;;;;10475304;28;20230;-75
2021/09/26 07:03:30;;;;;;;8.57;7.73;;;20.10;44.50;;;;;;10467263;28;20224;-75
2021/09/26 07:08:36;;;;;;;8.23;7.43;;;20.30;44.80;;;;;;10467645;28;20719;-75
2021/09/26 07:13:39;;;;;;;8.00;7.20;;;20.40;45.40;;;;;;10476270;28;20232;-75
2021/09/26 07:18:42;;;;;;;7.83;6.97;;;20.50;44.80;;;;;;10476452;28;20223;-74
2021/09/26 07:23:47;;;;;;;7.80;6.97;;;20.70;44.80;;;;;;10476119;28;20232;-74
2021/09/26 07:28:50;;;;;;;6.80;6.20;;;20.80;45.50;;;;;;10483669;28;20225;-74
2021/09/26 07:33:53;;;;;;;6.50;5.90;;;21.00;45.10;;;;;;10468526;28;20583;-75
2021/09/26 07:38:58;;;;;;;6.97;6.37;;;21.20;45.00;;;;;;10482406;28;20220;-75
2021/09/26 07:44:01;;;;;;;6.43;5.93;;;21.30;45.20;;;;;;10479345;28;20232;-75
2021/09/26 07:49:05;;;;;;;7.20;6.03;;;21.50;44.90;;;;;;10482408;28;20231;-74
2021/09/26 07:54:10;;;;;;;5.20;4.80;;;21.80;44.90;;;;;;10466775;28;20232;-75
2021/09/26 07:59:13;;;;;;;5.50;4.90;;;21.90;44.80;;;;;;10473153;28;20216;-75
2021/09/26 08:04:17;;;;;;;4.57;4.17;;;22.10;44.50;;;;;;10474920;28;20304;-75
2021/09/26 08:09:21;;;;;;;5.67;5.17;;;22.40;44.20;;;;;;10477446;28;20220;-74
2021/09/26 08:14:25;;;;;;;5.03;4.53;;;22.60;44.20;;;;;;10477594;28;20238;-75
2021/09/26 08:19:28;;;;;;;6.10;4.83;;;22.80;44.60;;;;;;10479723;28;20244;-75
2021/09/26 08:24:34;;;;;;;5.33;4.90;;;23.00;44.00;;;;;;10483677;28;20224;-75
2021/09/26 08:29:38;;;;;;;5.10;4.60;;;23.30;43.70;;;;;;10479379;28;20235;-75
2021/09/26 08:34:41;;;;;;;5.40;4.90;;;23.60;43.60;;;;;;10473510;28;20787;-74
2021/09/26 08:39:45;;;;;;;6.17;4.50;;;23.80;43.20;;;;;;10473270;28;20270;-73
2021/09/26 08:44:49;;;;;;;5.20;4.60;;;24.10;42.80;;;;;;10474102;28;20220;-75
2021/09/26 08:49:53;;;;;;;4.80;4.40;;;24.40;42.70;;;;;;10469776;28;20708;-75
2021/09/26 08:54:58;;;;;;;6.07;4.30;;;24.60;42.20;;;;;;10468900;28;20826;-75
2021/09/26 09:00:01;;;;;;;4.87;4.47;;;24.90;41.40;;;;;;10474195;28;20228;-75
2021/09/26 09:05:06;;;;;;;5.47;4.97;;;25.10;41.00;;;;;;10469212;28;20708;-75
2021/09/26 09:10:11;;;;;;;5.00;4.50;;;25.30;41.10;;;;;;10477467;28;20232;-74
2021/09/26 09:15:15;;;;;;;4.63;4.23;;;25.40;40.40;;;;;;10471571;28;20225;-74
2021/09/26 09:20:24;;;;;;;5.17;4.63;;;25.60;40.60;;;;;;10477904;28;20237;-74
2021/09/26 09:25:40;;;;;;;5.03;4.30;;;25.80;39.70;;;;;;10476692;28;20231;-74
2021/09/26 09:30:47;;;;;;;5.27;4.77;;;25.90;38.70;;;;;;10474737;28;20744;-75
2021/09/26 09:35:53;;;;;;;5.07;4.67;;;26.00;39.20;;;;;;10480609;28;20311;-74
2021/09/26 09:40:58;;;;;;;5.30;4.80;;;26.10;38.90;;;;;;10474621;28;20228;-76
2021/09/26 09:46:02;;;;;;;4.80;4.40;;;26.30;38.50;;;;;;10467759;28;20601;-75
2021/09/26 09:51:07;;;;;;;5.13;4.73;;;26.40;38.50;;;;;;10483128;28;20318;-75
2021/09/26 09:56:17;;;;;;;5.17;4.87;;;26.50;38.10;;;;;;10475774;28;20231;-75
2021/09/26 10:01:27;;;;;;;5.77;5.27;;;26.60;37.00;;;;;;10480582;28;20232;-75
2021/09/26 10:06:38;;;;;;;5.70;5.20;;;26.60;36.90;;;;;;10481561;28;20236;-75
2021/09/26 10:11:46;;;;;;;5.60;5.00;;;26.70;36.90;;;;;;10482902;28;20315;-75
2021/09/26 10:16:50;;;;;;;5.27;4.77;;;26.70;36.50;;;;;;10483305;28;20662;-75
2021/09/26 10:21:56;;;;;;;5.07;4.63;;;26.70;37.00;;;;;;10475510;28;20239;-75
2021/09/26 10:27:06;;;;;;;5.40;4.90;;;26.80;36.50;;;;;;10479328;28;20231;-75
2021/09/26 10:32:11;;;;;;;5.27;4.77;;;26.90;35.80;;;;;;10484227;28;20228;-76
2021/09/26 10:37:15;;;;;;;5.30;4.90;;;27.00;36.50;;;;;;10479550;28;20224;-75
2021/09/26 10:42:22;;;;;;;7.47;5.10;;;27.10;36.00;;;;;;10477070;28;20228;-75
2021/09/26 10:47:27;;;;;;;5.40;4.90;;;27.20;35.50;;;;;;10470653;28;20221;-75
2021/09/26 10:52:34;;;;;;;5.90;5.17;;;27.20;35.50;;;;;;10483607;28;20286;-76
2021/09/26 10:57:38;;;;;;;5.53;5.00;;;27.20;35.10;;;;;;10479554;28;20232;-76
2021/09/26 11:02:43;;;;;;;5.30;4.90;;;27.20;35.10;;;;;;10470877;28;20231;-75
2021/09/26 11:07:47;;;;;;;6.53;4.87;;;27.10;35.50;;;;;;10481809;28;20236;-76
2021/09/26 11:12:52;;;;;;;5.20;4.70;;;27.00;35.50;;;;;;10478436;28;20243;-77
2021/09/26 11:17:57;;;;;;;5.10;4.70;;;26.90;35.60;;;;;;10485531;28;20922;-78
2021/09/26 11:23:32;;;;;;;5.30;4.80;;;26.90;35.60;;;;;;10485277;28;20247;-76
2021/09/26 11:28:39;;;;;;;6.37;5.03;;;26.80;35.20;;;;;;10479691;28;20735;-79
2021/09/26 11:33:57;;;;;;;7.13;5.23;;;26.80;35.30;;;;;;10468246;28;20221;-75
2021/09/26 11:39:26;;;;;;;5.57;5.00;;;26.90;34.60;;;;;;10478786;28;20241;-76
2021/09/26 11:44:33;;;;;;;5.87;5.00;;;27.00;35.20;;;;;;10472502;28;20221;-76
2021/09/26 11:49:37;;;;;;;4.93;4.30;;;27.10;35.30;;;;;;10474849;28;20225;-76
2021/09/26 11:54:40;;;;;;;5.13;4.63;;;27.20;34.90;;;;;;10474266;28;20233;-76
2021/09/26 11:59:45;;;;;;;4.90;4.40;;;27.20;35.10;;;;;;10470675;28;20696;-76
2021/09/26 12:04:48;;;;;;;4.63;4.13;;;27.30;34.50;;;;;;10468821;28;20232;-76
2021/09/26 12:09:52;;;;;;;4.90;4.23;;;27.50;34.70;;;;;;10472578;28;20230;-76
2021/09/26 12:15:04;;;;;;;5.00;4.53;;;27.60;34.70;;;;;;10475958;28;20245;-77
2021/09/26 12:20:10;;;;;;;4.53;4.10;;;27.70;33.60;;;;;;10470761;28;20224;-77
2021/09/26 12:25:25;;;;;;;4.70;4.30;;;27.80;33.70;;;;;;10470876;28;20235;-77
2021/09/26 12:30:31;;;;;;;4.30;4.00;;;27.90;33.10;;;;;;10464794;28;20660;-75
2021/09/26 12:35:47;;;;;;;4.17;3.87;;;27.90;32.90;;;;;;10474116;28;20216;-76
2021/09/26 12:40:55;;;;;;;6.37;4.30;;;28.00;32.90;;;;;;10466522;28;20232;-77
2021/09/26 12:46:01;;;;;;;4.57;4.13;;;28.00;32.60;;;;;;10468999;28;20261;-76
2021/09/26 12:51:10;;;;;;;4.43;3.90;;;28.10;33.10;;;;;;10482373;28;20438;-76
2021/09/26 12:56:19;;;;;;;4.53;4.13;;;28.10;31.90;;;;;;10482702;28;20235;-76
2021/09/26 13:01:28;;;;;;;4.30;3.90;;;28.10;31.90;;;;;;10473989;28;20224;-75
2021/09/26 13:06:35;;;;;;;4.00;3.70;;;28.10;32.40;;;;;;10479346;28;20776;-76
2021/09/26 13:11:42;;;;;;;4.73;4.23;;;28.00;31.80;;;;;;10484534;28;20274;-76
2021/09/26 13:16:48;;;;;;;5.40;4.90;;;28.00;31.80;;;;;;10472392;28;20236;-76
2021/09/26 13:22:08;;;;;;;4.80;4.30;;;28.00;31.80;;;;;;10476630;28;20228;-75
2021/09/26 13:27:20;;;;;;;5.07;4.20;;;27.90;31.80;;;;;;10477057;28;20680;-77
2021/09/26 13:32:26;;;;;;;4.20;3.80;;;27.90;31.60;;;;;;10486145;28;20230;-76
2021/09/26 13:37:30;;;;;;;4.90;3.80;;;27.80;32.20;;;;;;10480178;28;20220;-77
2021/09/26 13:42:38;;;;;;;5.00;4.50;;;27.90;32.40;;;;;;10472720;28;20236;-76
2021/09/26 13:47:41;;;;;;;4.67;4.27;;;27.90;32.20;;;;;;10479748;28;20234;-76
2021/09/26 13:52:46;;;;;;;5.47;4.93;;;28.00;32.80;;;;;;10473381;28;20278;-76
2021/09/26 13:57:50;;;;;;;5.70;5.10;;;28.10;32.90;;;;;;10477675;28;20718;-76
2021/09/26 14:02:53;;;;;;;5.90;5.43;;;28.10;32.60;;;;;;10471746;28;20232;-76
2021/09/26 14:07:57;;;;;;;6.87;5.90;;;28.10;32.70;;;;;;10475973;28;20231;-76
2021/09/26 14:13:04;;;;;;;6.50;5.67;;;28.10;32.80;;;;;;10476479;28;21681;-76
2021/09/26 14:18:07;;;;;;;9.57;6.40;;;28.10;32.40;;;;;;10475409;28;20254;-75
2021/09/26 14:23:11;;;;;;;7.30;6.10;;;28.00;32.50;;;;;;10474119;28;20232;-75
2021/09/26 14:28:15;;;;;;;7.03;6.37;;;27.90;32.20;;;;;;10477635;28;20716;-76
2021/09/26 14:33:19;;;;;;;7.20;6.63;;;27.90;32.00;;;;;;10476333;28;20247;-76
2021/09/26 14:38:22;;;;;;;7.03;6.43;;;27.80;31.90;;;;;;10478742;28;20228;-75
2021/09/26 14:43:26;;;;;;;7.30;6.70;;;27.70;31.90;;;;;;10477384;28;20703;-76
2021/09/26 14:48:30;;;;;;;6.93;6.43;;;27.70;31.60;;;;;;10488613;28;20224;-76
2021/09/26 14:53:33;;;;;;;7.60;6.90;;;27.60;31.80;;;;;;10467537;28;20263;-74
2021/09/26 14:58:38;;;;;;;6.97;6.37;;;27.60;32.00;;;;;;10472271;28;20546;-76
2021/09/26 15:03:41;;;;;;;7.63;6.87;;;27.60;31.60;;;;;;10480949;28;20315;-75
2021/09/26 15:08:59;;;;;;;6.80;6.20;;;27.60;31.80;;;;;;10477483;28;20952;-75
2021/09/26 15:14:05;;;;;;;7.30;6.70;;;27.60;31.70;;;;;;10475730;28;20224;-76
2021/09/26 15:19:08;;;;;;;7.50;6.77;;;27.60;31.10;;;;;;10474794;28;20225;-76
2021/09/26 15:24:11;;;;;;;7.33;6.70;;;27.60;31.30;;;;;;10478909;28;20612;-75
2021/09/26 15:29:16;;;;;;;7.87;6.50;;;27.60;31.30;;;;;;10473567;28;20295;-76
2021/09/26 15:34:20;;;;;;;6.77;6.03;;;27.60;31.20;;;;;;10474791;28;20236;-76
2021/09/26 15:39:23;;;;;;;7.10;6.23;;;27.60;31.60;;;;;;10475023;28;20237;-76
2021/09/26 15:44:28;;;;;;;7.57;6.90;;;27.50;31.60;;;;;;10474367;28;20847;-75
2021/09/26 15:49:33;;;;;;;6.60;6.10;;;27.60;31.40;;;;;;10475713;28;20220;-76
2021/09/26 15:54:36;;;;;;;7.37;6.67;;;27.60;31.70;;;;;;10473555;28;20228;-75
2021/09/26 15:59:41;;;;;;;7.10;6.50;;;27.60;32.30;;;;;;10469618;28;20306;-76
2021/09/26 16:04:44;;;;;;;7.27;6.53;;;27.60;31.60;;;;;;10472954;28;20228;-75
2021/09/26 16:09:47;;;;;;;7.77;6.97;;;27.60;31.80;;;;;;10463145;28;20276;-76
2021/09/26 16:14:52;;;;;;;6.87;6.37;;;27.60;32.50;;;;;;10478293;28;20225;-76
2021/09/26 16:19:55;;;;;;;6.77;6.27;;;27.50;31.50;;;;;;10470036;28;20222;-75
2021/09/26 16:25:01;;;;;;;6.60;6.10;;;27.40;31.00;;;;;;10472544;28;20247;-75
2021/09/26 16:30:08;;;;;;;6.37;5.90;;;27.20;29.80;;;;;;10478893;28;20242;-75
2021/09/26 16:35:13;;;;;;;6.37;5.87;;;27.10;29.80;;;;;;10476341;28;21144;-75
2021/09/26 16:40:19;;;;;;;6.50;6.00;;;26.90;30.10;;;;;;10473775;28;20231;-75
2021/09/26 16:45:27;;;;;;;6.20;5.70;;;26.80;30.10;;;;;;10463085;28;20321;-76
2021/09/26 16:50:33;;;;;;;6.20;5.80;;;26.60;30.00;;;;;;10469433;28;20226;-76
2021/09/26 16:55:37;;;;;;;6.13;5.60;;;26.40;30.30;;;;;;10476546;28;20227;-76
2021/09/26 17:00:42;;;;;;;6.10;5.60;;;26.40;30.70;;;;;;10477974;28;20227;-76
2021/09/26 17:05:46;;;;;;;6.43;5.83;;;26.20;30.40;;;;;;10465085;28;20228;-76
2021/09/26 17:10:49;;;;;;;6.83;6.30;;;26.10;30.50;;;;;;10469648;28;20228;-76
2021/09/26 17:15:54;;;;;;;6.80;6.30;;;25.90;30.60;;;;;;10472999;28;20728;-75
2021/09/26 17:20:58;;;;;;;6.60;6.20;;;25.70;30.60;;;;;;10472670;28;20220;-75
2021/09/26 17:26:02;;;;;;;5.87;5.40;;;25.60;31.00;;;;;;10473889;28;20235;-75
2021/09/26 17:31:07;;;;;;;6.53;5.93;;;25.50;31.10;;;;;;10473145;28;20226;-76
2021/09/26 17:36:13;;;;;;;8.40;5.40;;;25.40;31.10;;;;;;10470673;28;20782;-76
2021/09/26 17:41:17;;;;;;;5.93;5.27;;;25.30;31.20;;;;;;10475137;28;20220;-76
2021/09/26 17:46:25;;;;;;;6.00;5.60;;;25.20;31.30;;;;;;10486357;28;20228;-76
2021/09/26 17:51:29;;;;;;;6.10;5.70;;;25.20;31.50;;;;;;10478884;28;20220;-76
2021/09/26 17:56:32;;;;;;;6.37;5.87;;;25.10;31.50;;;;;;10485457;28;20220;-76
2021/09/26 18:01:38;;;;;;;5.83;5.43;;;25.10;32.30;;;;;;10478762;28;20226;-76
2021/09/26 18:06:41;;;;;;;6.40;5.90;;;25.00;31.40;;;;;;10480311;28;20228;-76
2021/09/26 18:11:45;;;;;;;5.63;5.23;;;25.00;31.50;;;;;;10481574;28;20236;-75
2021/09/26 18:16:49;;;;;;;5.60;5.20;;;25.00;31.80;;;;;;10483373;28;20251;-75
2021/09/26 18:21:53;;;;;;;5.80;5.40;;;24.90;31.80;;;;;;10482346;28;20225;-77
2021/09/26 18:26:56;;;;;;;6.30;5.80;;;24.90;32.00;;;;;;10479693;28;20224;-76
2021/09/26 18:32:00;;;;;;;6.70;6.20;;;24.80;32.00;;;;;;10482550;28;20232;-76
2021/09/26 18:37:04;;;;;;;6.47;6.07;;;24.80;32.30;;;;;;10479733;28;20223;-75
2021/09/26 18:42:08;;;;;;;5.83;5.43;;;24.70;32.30;;;;;;10479966;28;20696;-76
2021/09/26 18:47:13;;;;;;;6.13;5.73;;;24.60;32.40;;;;;;10481539;28;20220;-76
2021/09/26 18:52:16;;;;;;;6.77;6.27;;;24.50;32.50;;;;;;10481586;28;20232;-76
2021/09/26 18:57:20;;;;;;;6.33;5.87;;;24.50;32.80;;;;;;10481030;28;20251;-76
2021/09/26 19:02:24;;;;;;;6.77;6.27;;;24.40;32.80;;;;;;10480779;28;20238;-76
2021/09/26 19:07:27;;;;;;;6.40;5.90;;;24.30;32.90;;;;;;10473799;28;20228;-76
2021/09/26 19:12:31;;;;;;;7.10;6.60;;;24.30;33.00;;;;;;10481459;28;20224;-77
2021/09/26 19:17:35;;;;;;;7.10;6.57;;;24.30;33.20;;;;;;10483265;28;20220;-76
2021/09/26 19:22:39;;;;;;;6.67;6.17;;;24.20;33.40;;;;;;10476810;28;20231;-75
2021/09/26 19:27:42;;;;;;;6.57;6.07;;;24.10;33.40;;;;;;10465558;28;20231;-76
2021/09/26 19:32:49;;;;;;;7.20;6.60;;;24.10;33.40;;;;;;10459707;28;20878;-75
2021/09/26 19:37:52;;;;;;;6.80;6.30;;;24.00;33.90;;;;;;10451775;28;20901;-73
2021/09/26 19:42:56;;;;;;;7.13;6.63;;;23.90;33.60;;;;;;10452969;28;20266;-73
2021/09/26 19:48:00;;;;;;;7.10;6.57;;;23.90;33.60;;;;;;10457925;28;21030;-73
2021/09/26 19:53:04;;;;;;;6.93;6.33;;;23.90;33.80;;;;;;10473677;28;20247;-73
2021/09/26 19:58:08;;;;;;;7.37;6.77;;;23.80;33.80;;;;;;10472788;28;20231;-72
2021/09/26 20:03:13;;;;;;;6.90;6.20;;;23.80;33.90;;;;;;10472023;28;20331;-74
2021/09/26 20:08:17;;;;;;;6.70;6.20;;;23.80;34.00;;;;;;10481517;28;20213;-74
2021/09/26 20:13:20;;;;;;;6.90;6.30;;;23.80;33.90;;;;;;10480012;28;20221;-75
2021/09/26 20:18:27;;;;;;;6.93;6.40;;;23.80;34.10;;;;;;10467864;28;20232;-74
2021/09/26 20:23:33;;;;;;;6.80;6.30;;;23.70;34.30;;;;;;10471412;28;20311;-75
2021/09/26 20:28:36;;;;;;;7.33;6.70;;;23.70;34.30;;;;;;10468751;28;20228;-74
2021/09/26 20:33:42;;;;;;;6.87;6.37;;;23.70;34.40;;;;;;10469677;28;20239;-74
2021/09/26 20:38:45;;;;;;;6.90;6.40;;;23.60;34.60;;;;;;10467597;28;20227;-75
2021/09/26 20:43:48;;;;;;;6.77;6.27;;;23.60;34.50;;;;;;10469173;28;20795;-75
2021/09/26 20:48:54;;;;;;;7.37;6.70;;;23.60;34.80;;;;;;10472008;28;20224;-74
2021/09/26 20:53:57;;;;;;;8.30;7.70;;;23.50;35.30;;;;;;10470463;28;20765;-75
2021/09/26 20:59:00;;;;;;;7.83;7.00;;;23.40;35.30;;;;;;10472523;28;20216;-74
2021/09/26 21:04:06;;;;;;;8.20;7.47;;;23.30;35.30;;;;;;10469419;28;20228;-75
2021/09/26 21:09:09;;;;;;;7.47;6.87;;;23.20;36.40;;;;;;10469787;28;20343;-74
2021/09/26 21:14:13;;;;;;;8.10;7.43;;;23.10;36.30;;;;;;10474691;28;20240;-74
2021/09/26 21:19:17;;;;;;;8.20;7.50;;;22.90;37.40;;;;;;10480380;28;20599;-75
2021/09/26 21:24:21;;;;;;;8.17;7.30;;;22.80;37.60;;;;;;10475877;28;20807;-75
2021/09/26 21:29:24;;;;;;;8.03;7.37;;;22.70;37.50;;;;;;10481560;28;20626;-75
2021/09/26 21:34:29;;;;;;;8.20;7.50;;;22.70;37.90;;;;;;10482678;28;20233;-75
2021/09/26 21:39:32;;;;;;;8.77;7.97;;;22.50;38.70;;;;;;10484745;28;20232;-75
2021/09/26 21:44:35;;;;;;;8.23;7.60;;;22.40;38.50;;;;;;10475467;28;20227;-75
2021/09/26 21:49:41;;;;;;;7.67;6.97;;;22.30;38.60;;;;;;10473226;28;20229;-74
2021/09/26 21:54:44;;;;;;;8.80;8.00;;;22.20;39.40;;;;;;10480663;28;21605;-75
2021/09/26 21:59:48;;;;;;;7.73;7.13;;;22.00;39.00;;;;;;10481569;28;20224;-76
2021/09/26 22:04:52;;;;;;;8.13;7.47;;;21.80;39.50;;;;;;10481356;28;20220;-75
2021/09/26 22:09:56;;;;;;;9.03;8.23;;;21.60;41.50;;;;;;10481830;28;20225;-76
2021/09/26 22:14:59;;;;;;;7.57;7.07;;;21.30;40.90;;;;;;10477988;28;20232;-75
2021/09/26 22:20:04;;;;;;;6.93;6.23;;;21.10;40.70;;;;;;10481049;28;20224;-75
2021/09/26 22:25:09;;;;;;;6.87;6.27;;;21.10;41.10;;;;;;10474145;28;20228;-75
2021/09/26 22:30:16;;;;;;;6.47;5.93;;;21.00;41.20;;;;;;10489500;28;20251;-75
2021/09/26 22:35:23;;;;;;;6.33;5.83;;;21.00;41.00;;;;;;10488214;28;20235;-75
2021/09/26 22:40:27;;;;;;;7.30;6.60;;;20.90;41.20;;;;;;10487304;28;20221;-74
2021/09/26 22:45:30;;;;;;;7.53;6.93;;;20.90;40.40;;;;;;10485397;28;20235;-75
2021/09/26 22:50:36;;;;;;;6.80;6.30;;;20.90;40.50;;;;;;10501529;28;20231;-75
2021/09/26 22:55:41;;;;;;;6.73;6.23;;;20.80;41.90;;;;;;10500472;28;20235;-75
2021/09/26 23:00:49;;;;;;;5.83;5.33;;;20.70;41.30;;;;;;10479546;28;20225;-75
2021/09/26 23:05:53;;;;;;;6.03;5.57;;;20.70;41.60;;;;;;10482647;28;20795;-75
2021/09/26 23:10:57;;;;;;;6.07;5.57;;;20.70;41.50;;;;;;10487561;28;20225;-75
2021/09/26 23:16:00;;;;;;;6.80;6.30;;;20.70;41.00;;;;;;10500467;28;20240;-75
2021/09/26 23:21:05;;;;;;;6.33;5.73;;;20.70;41.20;;;;;;10493998;28;20232;-75
2021/09/26 23:26:11;;;;;;;6.87;6.27;;;20.80;41.60;;;;;;10478647;28;20243;-75
2021/09/26 23:31:15;;;;;;;6.67;6.13;;;20.80;41.70;;;;;;10485043;28;20754;-75
2021/09/26 23:36:20;;;;;;;6.97;6.47;;;20.90;41.00;;;;;;10499785;28;20232;-75
2021/09/26 23:41:23;;;;;;;7.40;6.70;;;20.90;41.80;;;;;;10490152;28;20700;-75
2021/09/26 23:46:29;;;;;;;6.90;6.30;;;21.00;41.30;;;;;;10477220;28;20221;-75
2021/09/26 23:51:35;;;;;;;7.40;6.80;;;21.00;41.70;;;;;;10487737;28;20224;-75
2021/09/26 23:56:38;;;;;;;6.87;6.37;;;21.00;41.80;;;;;;10475394;28;20236;-75
